Météo Nord-Pas-de-Calais   La météo au plus près de chez vous

Station météorologique

Observations météo à Quimper (29216)

29216001 82 m Dernier relevé à 21:54
20.5°C
Humidité 93 % Vent 9.4 km/h 1018.4 hPa

Journée consultée

Dimanche 6 Septembre 2026

Synthèse de la journée

Périodes de référence en UTC

Température maximale

26.8°C

à 17:06

06h 06h

Température minimale

14.6°C

à 06:36

18h 18h

Rafale maximale

31 km/h

à 13:06

00h 00h

Précipitations

0 mm

Cumul quotidien

06h 06h

Ensoleillement

3h 50 mins

Durée quotidienne

00h 00h

Graphiques de la journée

Heure locale Réduire

Données détaillées

Relevés météo

Pas de 6 minutes Afficher les relevés infra-horaires
Relevés météo détaillés à Quimper pour le Dimanche 6 Septembre 2026
Heure Température °C Point de rosée °C Humidité % Vent moyen (raf.), km/h Précipitations mm Température à 10 cm °C Température à 20 cm °C Température à 50 cm °C Visibilité m État du sol   Ensoleillement min Rayonnement global W/m² Pression hPa Nébulosité Octas
21:54 20.5 °C 19.8 °C 96 % 10 km/h (16 km/h) 0 mm0 mm 21.5 °C 20.6 °C 19.5 °C 13630 m 0   0 min 0 W/m² 1019 hPa
21:48 20.6 °C 19.8 °C 95 % 11 km/h (16 km/h) 0 mm0 mm 21.5 °C 20.6 °C 19.5 °C 13920 m 0   0 min 0 W/m² 1018.9 hPa
21:42 20.6 °C 19.8 °C 95 % 12 km/h (18 km/h) 0 mm0 mm 21.5 °C 20.6 °C 19.6 °C 15100 m 0   0 min 0 W/m² 1018.8 hPa
21:36 20.6 °C 19.8 °C 95 % 10 km/h (17 km/h) 0 mm0 mm 21.5 °C 20.5 °C 19.5 °C 16050 m 0   0 min 0 W/m² 1018.8 hPa
21:30 20.6 °C 19.8 °C 95 % 10 km/h (17 km/h) 0 mm0 mm 21.5 °C 20.5 °C 19.5 °C 16480 m 0   0 min 0 W/m² 1018.8 hPa
21:24 20.6 °C 19.8 °C 95 % 11 km/h (17 km/h) 0 mm0 mm 21.5 °C 20.5 °C 19.5 °C 16930 m 0   0 min 0 W/m² 1018.7 hPa
21:18 20.6 °C 19.6 °C 94 % 10 km/h (17 km/h) 0 mm0 mm 21.5 °C 20.5 °C 19.5 °C 17500 m 0   0 min 0 W/m² 1018.7 hPa
21:12 20.6 °C 19.6 °C 94 % 10 km/h (16 km/h) 0 mm0 mm 21.5 °C 20.5 °C 19.5 °C 18380 m 0   0 min 0 W/m² 1018.6 hPa
21:06 20.6 °C 19.6 °C 94 % 10 km/h (16 km/h) 0 mm0 mm 21.5 °C 20.5 °C 19.5 °C 19290 m 0   0 min 0 W/m² 1018.5 hPa
21:00 20.6 °C 19.6 °C 94 % 10 km/h (15 km/h) 0 mm0 mm 21.5 °C 20.4 °C 19.6 °C 19690 m 0   0 min 0 W/m² 1018.5 hPa
20:54 20.6 °C 19.4 °C 93 % 9 km/h (15 km/h) 0 mm0 mm 21.5 °C 20.4 °C 19.5 °C 38410 m 0   0 min 0 W/m² 1018.4 hPa
20:48 20.7 °C 19.4 °C 92 % 9 km/h (13 km/h) 0 mm0 mm 21.5 °C 20.4 °C 19.5 °C 40580 m 0   0 min 0 W/m² 1018.3 hPa
20:42 20.9 °C 19.6 °C 92 % 7 km/h (12 km/h) 0 mm0 mm 21.5 °C 20.4 °C 19.5 °C 44130 m 0   0 min 0 W/m² 1018.2 hPa
20:36 21 °C 19.3 °C 90 % 6 km/h (7 km/h) 0 mm0 mm 21.5 °C 20.4 °C 19.6 °C 45540 m 0   0 min 0 W/m² 1017.9 hPa
20:30 21.3 °C 19.6 °C 90 % 6 km/h (9 km/h) 0 mm0 mm 21.5 °C 20.4 °C 19.5 °C 19720 m 0   0 min 0 W/m² 1018 hPa
20:24 21.4 °C 19.5 °C 89 % 7 km/h (10 km/h) 0 mm0 mm 21.5 °C 20.4 °C 19.6 °C 19720 m 0   0 min 0 W/m² 1018 hPa
20:18 21.5 °C 19.4 °C 88 % 8 km/h (12 km/h) 0 mm0 mm 21.5 °C 20.4 °C 19.6 °C 51410 m 0   0 min 1.2 W/m² 1018 hPa
20:12 21.7 °C 19.4 °C 87 % 8 km/h (12 km/h) 0 mm0 mm 21.5 °C 20.3 °C 19.6 °C 54030 m 0   0 min 10.4 W/m² 1018 hPa
20:06 21.9 °C 19.6 °C 87 % 10 km/h (16 km/h) 0 mm0 mm 21.4 °C 20.3 °C 19.6 °C 57090 m 0   0 min 15.4 W/m² 1018.1 hPa
20:00 22 °C 19.5 °C 86 % 11 km/h (16 km/h) 0 mm0 mm 21.4 °C 20.3 °C 19.5 °C 57290 m 0   0 min 18.7 W/m² 1018.1 hPa
19:54 22.2 °C 19.6 °C 85 % 10 km/h (14 km/h) 0 mm0 mm 21.4 °C 20.3 °C 19.5 °C 58700 m 0   0 min 22 W/m² 1018.1 hPa
19:48 22.3 °C 19.5 °C 84 % 9 km/h (14 km/h) 0 mm0 mm 21.4 °C 20.3 °C 19.5 °C 59780 m 0   4 min 30.3 W/m² 1018.1 hPa
19:42 22.4 °C 19.6 °C 84 % 10 km/h (17 km/h) 0 mm0 mm 21.4 °C 20.2 °C 19.5 °C 59960 m 0   2 min 30.5 W/m² 1018.2 hPa
19:36 22.6 °C 19.6 °C 83 % 12 km/h (18 km/h) 0 mm0 mm 21.4 °C 20.2 °C 19.5 °C 60000 m 0   4 min 39 W/m² 1018.1 hPa
19:30 22.8 °C 19.6 °C 82 % 13 km/h (22 km/h) 0 mm0 mm 21.3 °C 20.2 °C 19.6 °C 60000 m 0   3 min 41.8 W/m² 1018.1 hPa
19:24 22.9 °C 19.5 °C 81 % 16 km/h (23 km/h) 0 mm0 mm 21.3 °C 20.2 °C 19.6 °C 16990 m 0   3 min 47.9 W/m² 1018.1 hPa
19:18 23.4 °C 19.5 °C 79 % 18 km/h (25 km/h) 0 mm0 mm 21.3 °C 20.2 °C 19.6 °C 16990 m 0   5 min 58 W/m² 1018.2 hPa
19:12 23.8 °C 19.5 °C 77 % 16 km/h (25 km/h) 0 mm0 mm 21.2 °C 20.2 °C 19.6 °C 60000 m 0   4 min 62.8 W/m² 1018.2 hPa
19:06 24 °C 19.3 °C 75 % 15 km/h (21 km/h) 0 mm0 mm 21.2 °C 20.1 °C 19.6 °C 60000 m 0   6 min 74 W/m² 1018.1 hPa
19:00 24.2 °C 19.3 °C 74 % 14 km/h (21 km/h) 0 mm0 mm 21.2 °C 20.1 °C 19.6 °C 60000 m 0   6 min 82.4 W/m² 1018.1 hPa
18:54 24.2 °C 19.3 °C 74 % 15 km/h (19 km/h) 0 mm0 mm 21.2 °C 20.1 °C 19.6 °C 60000 m 0   6 min 87.8 W/m² 1018.1 hPa
18:48 24.2 °C 19.3 °C 74 % 15 km/h (22 km/h) 0 mm0 mm 21.1 °C 20.1 °C 19.6 °C 60000 m 0   6 min 93.6 W/m² 1018 hPa
18:42 24.2 °C 19.1 °C 73 % 16 km/h (24 km/h) 0 mm0 mm 21.1 °C 20 °C 19.6 °C 60000 m 0   6 min 98.9 W/m² 1018.1 hPa
18:36 24.2 °C 19.3 °C 74 % 15 km/h (21 km/h) 0 mm0 mm 21 °C 20.1 °C 19.6 °C 60000 m 0   6 min 104.5 W/m² 1018.1 hPa
18:30 24.2 °C 19.3 °C 74 % 14 km/h (20 km/h) 0 mm0 mm 21 °C 20 °C 19.6 °C 60000 m 0   6 min 111.8 W/m² 1018 hPa
18:24 24 °C 18.9 °C 73 % 15 km/h (21 km/h) 0 mm0 mm 21 °C 20 °C 19.6 °C 60000 m 0   6 min 119.3 W/m² 1018.1 hPa
18:18 24 °C 18.9 °C 73 % 16 km/h (22 km/h) 0 mm0 mm 20.9 °C 20 °C 19.6 °C 60000 m 0   6 min 126.5 W/m² 1018.1 hPa
18:12 24.1 °C 19 °C 73 % 18 km/h (28 km/h) 0 mm0 mm 20.9 °C 20 °C 19.6 °C 60000 m 0   6 min 133.4 W/m² 1018.1 hPa
18:06 24.1 °C 18.7 °C 72 % 18 km/h (28 km/h) 0 mm0 mm 20.8 °C 20 °C 19.6 °C 60000 m 0   6 min 139.9 W/m² 1018.2 hPa
18:00 23.9 °C 18.5 °C 72 % 17 km/h (26 km/h) 0 mm0 mm 20.8 °C 19.9 °C 19.6 °C 60000 m 0   6 min 145.9 W/m² 1018.1 hPa
17:54 24.1 °C 18.5 °C 71 % 15 km/h (25 km/h) 0 mm0 mm 20.8 °C 19.9 °C 19.6 °C 60000 m 0   6 min 152.4 W/m² 1018 hPa
17:48 24.1 °C 18.1 °C 69 % 17 km/h (26 km/h) 0 mm0 mm 20.7 °C 19.9 °C 19.6 °C 60000 m 0   6 min 157.6 W/m² 1017.8 hPa
17:42 24.6 °C 18.5 °C 69 % 17 km/h (24 km/h) 0 mm0 mm 20.7 °C 19.9 °C 19.6 °C 60000 m 0   6 min 160.8 W/m² 1017.9 hPa
17:36 24.4 °C 17.9 °C 67 % 19 km/h (30 km/h) 0 mm0 mm 20.6 °C 19.9 °C 19.6 °C 60000 m 0   4 min 138.9 W/m² 1017.9 hPa
17:30 25.2 °C 18.2 °C 65 % 22 km/h (30 km/h) 0 mm0 mm 20.6 °C 19.9 °C 19.6 °C 60000 m 0   6 min 183.1 W/m² 1017.9 hPa
17:24 25.9 °C 18.1 °C 62 % 16 km/h (28 km/h) 0 mm0 mm 20.5 °C 19.9 °C 19.6 °C 60000 m 0   6 min 195.2 W/m² 1017.9 hPa
17:18 26.1 °C 18.2 °C 62 % 12 km/h (19 km/h) 0 mm0 mm 20.5 °C 19.9 °C 19.6 °C 60000 m 0   6 min 195.6 W/m² 1017.7 hPa
17:12 26.4 °C 18 °C 60 % 13 km/h (18 km/h) 0 mm0 mm 20.5 °C 19.8 °C 19.6 °C 60000 m 0   6 min 197.3 W/m² 1017.7 hPa
17:06 26.8 °C 18.6 °C 61 % 12 km/h (18 km/h) 0 mm0 mm 20.4 °C 19.8 °C 19.6 °C 60000 m 0   6 min 221.8 W/m² 1017.7 hPa
17:00 26.3 °C 18.4 °C 62 % 12 km/h (22 km/h) 0 mm0 mm 20.4 °C 19.8 °C 19.6 °C 60000 m 0   6 min 228.1 W/m² 1017.7 hPa 7 Octas
16:54 26.2 °C 18.3 °C 62 % 10 km/h (22 km/h) 0 mm0 mm 20.4 °C 19.8 °C 19.6 °C 60000 m 0   4 min 180 W/m² 1017.7 hPa
16:48 26 °C 18.2 °C 62 % 9 km/h (14 km/h) 0 mm0 mm 20.3 °C 19.8 °C 19.6 °C 60000 m 0   6 min 198.9 W/m² 1017.7 hPa
16:42 25.6 °C 18 °C 63 % 8 km/h (14 km/h) 0 mm0 mm 20.2 °C 19.8 °C 19.6 °C 60000 m 0   1 min 104.3 W/m² 1018 hPa
16:36 26.3 °C 18.2 °C 61 % 8 km/h (15 km/h) 0 mm0 mm 20.2 °C 19.8 °C 19.6 °C 60000 m 0   5 min 217 W/m² 1017.9 hPa
16:30 25.6 °C 18 °C 63 % 6 km/h (15 km/h) 0 mm0 mm 20.2 °C 19.8 °C 19.6 °C 60000 m 0   6 min 213.7 W/m² 1018.1 hPa
16:24 25.6 °C 18 °C 63 % 6 km/h (13 km/h) 0 mm0 mm 20.2 °C 19.8 °C 19.6 °C 60000 m 0   6 min 232.6 W/m² 1018.1 hPa
16:18 25.5 °C 17.9 °C 63 % 8 km/h (12 km/h) 0 mm0 mm 20.1 °C 19.7 °C 19.6 °C 60000 m 0   5 min 224.5 W/m² 1018.2 hPa
16:12 25.1 °C 18.1 °C 65 % 8 km/h (14 km/h) 0 mm0 mm 20.1 °C 19.7 °C 19.6 °C 60000 m 0   6 min 248 W/m² 1018.3 hPa
16:06 24.5 °C 17.5 °C 65 % 9 km/h (14 km/h) 0 mm0 mm 20.1 °C 19.7 °C 19.6 °C 19680 m 0   4 min 212.1 W/m² 1018.2 hPa
16:00 24.2 °C 17.4 °C 66 % 8 km/h (13 km/h) 0 mm0 mm 20.1 °C 19.7 °C 19.6 °C 60000 m 0   1 min 141.6 W/m² 1018.4 hPa 6 Octas
15:54 24.4 °C 17.4 °C 65 % 9 km/h (15 km/h) 0 mm0 mm 20 °C 19.7 °C 19.6 °C 60000 m 0   5 min 288.6 W/m² 1018.4 hPa
15:48 23.8 °C 17.5 °C 68 % 10 km/h (15 km/h) 0 mm0 mm 20 °C 19.7 °C 19.6 °C 60000 m 0   4 min 264.3 W/m² 1018.5 hPa
15:42 22.9 °C 16.9 °C 69 % 10 km/h (17 km/h) 0 mm0 mm 20 °C 19.7 °C 19.6 °C 60000 m 0   0 min 117.4 W/m² 1018.7 hPa
15:36 23 °C 17 °C 69 % 12 km/h (19 km/h) 0 mm0 mm 20 °C 19.7 °C 19.6 °C 60000 m 0   0 min 113.9 W/m² 1018.7 hPa
15:30 23.2 °C 17.2 °C 69 % 14 km/h (19 km/h) 0 mm0 mm 19.9 °C 19.7 °C 19.6 °C 60000 m 0   0 min 124.4 W/m² 1018.7 hPa
15:24 23.1 °C 17.1 °C 69 % 12 km/h (17 km/h) 0 mm0 mm 19.9 °C 19.7 °C 19.6 °C 60000 m 0   0 min 127.4 W/m² 1018.9 hPa
15:18 23 °C 17 °C 69 % 11 km/h (15 km/h) 0 mm0 mm 19.9 °C 19.7 °C 19.6 °C 60000 m 0   0 min 109 W/m² 1018.9 hPa
15:12 23.1 °C 16.9 °C 68 % 10 km/h (15 km/h) 0 mm0 mm 19.8 °C 19.7 °C 19.6 °C 60000 m 0   0 min 106.6 W/m² 1018.8 hPa
15:06 23.1 °C 16.9 °C 68 % 9 km/h (15 km/h) 0 mm0 mm 19.8 °C 19.7 °C 19.6 °C 60000 m 0   0 min 103 W/m² 1018.9 hPa
15:00 23.2 °C 17 °C 68 % 11 km/h (15 km/h) 0 mm0 mm 19.8 °C 19.6 °C 19.6 °C 60000 m 0   0 min 109 W/m² 1018.8 hPa 8 Octas
14:54 23.3 °C 17.1 °C 68 % 11 km/h (17 km/h) 0 mm0 mm 19.8 °C 19.7 °C 19.6 °C 60000 m 0   0 min 101.5 W/m² 1018.9 hPa
14:48 23.2 °C 16.7 °C 67 % 12 km/h (15 km/h) 0 mm0 mm 19.8 °C 19.7 °C 19.6 °C 60000 m 0   0 min 105.1 W/m² 1019.1 hPa
14:42 23.4 °C 16.9 °C 67 % 13 km/h (18 km/h) 0 mm0 mm 19.7 °C 19.6 °C 19.6 °C 60000 m 0   0 min 104.7 W/m² 1018.8 hPa
14:36 23.2 °C 17 °C 68 % 15 km/h (22 km/h) 0 mm0 mm 19.7 °C 19.7 °C 19.6 °C 59850 m 0   0 min 116.8 W/m² 1018.8 hPa
14:30 23.3 °C 16.6 °C 66 % 14 km/h (22 km/h) 0 mm0 mm 19.7 °C 19.7 °C 19.6 °C 59850 m 0   0 min 103.4 W/m² 1018.9 hPa
14:24 23.3 °C 16.3 °C 65 % 14 km/h (22 km/h) 0 mm0 mm 19.6 °C 19.7 °C 19.6 °C 60000 m 0   0 min 94.7 W/m² 1018.7 hPa
14:18 23.5 °C 16.3 °C 64 % 15 km/h (24 km/h) 0 mm0 mm 19.6 °C 19.6 °C 19.6 °C 60000 m 0   0 min 96.1 W/m² 1018.7 hPa
14:12 23.9 °C 16.4 °C 63 % 18 km/h (24 km/h) 0 mm0 mm 19.6 °C 19.7 °C 19.6 °C 60000 m 0   0 min 134.5 W/m² 1018.7 hPa
14:06 24.1 °C 16.4 °C 62 % 18 km/h (24 km/h) 0 mm0 mm 19.6 °C 19.6 °C 19.6 °C 60000 m 0   1 min 193.4 W/m² 1018.8 hPa
14:00 24 °C 16.8 °C 64 % 15 km/h (23 km/h) 0 mm0 mm 19.6 °C 19.7 °C 19.6 °C 60000 m 0   3 min 247.2 W/m² 1018.7 hPa 7 Octas
13:54 23.4 °C 16 °C 63 % 16 km/h (25 km/h) 0 mm0 mm 19.5 °C 19.7 °C 19.6 °C 60000 m 0   0 min 139.5 W/m² 1018.7 hPa
13:48 23.6 °C 15.9 °C 62 % 18 km/h (25 km/h) 0 mm0 mm 19.5 °C 19.7 °C 19.6 °C 60000 m 0   0 min 137.9 W/m² 1018.8 hPa
13:42 23.9 °C 16.2 °C 62 % 18 km/h (25 km/h) 0 mm0 mm 19.5 °C 19.7 °C 19.6 °C 60000 m 0   4 min 231.8 W/m² 1018.9 hPa
13:36 23 °C 16.1 °C 65 % 18 km/h (26 km/h) 0 mm0 mm 19.5 °C 19.6 °C 19.6 °C 60000 m 0   0 min 123.9 W/m² 1019.2 hPa
13:30 22.7 °C 15.5 °C 64 % 17 km/h (26 km/h) 0 mm0 mm 19.5 °C 19.7 °C 19.6 °C 60000 m 0   0 min 111.9 W/m² 1019.2 hPa
13:24 23 °C 15.6 °C 63 % 18 km/h (27 km/h) 0 mm0 mm 19.5 °C 19.7 °C 19.6 °C 60000 m 0   0 min 108.1 W/m² 1019.2 hPa
13:18 23.1 °C 15.4 °C 62 % 20 km/h (29 km/h) 0 mm0 mm 19.4 °C 19.7 °C 19.6 °C 60000 m 0   0 min 130.7 W/m² 1019.2 hPa
13:12 23.4 °C 15.4 °C 61 % 21 km/h (31 km/h) 0 mm0 mm 19.4 °C 19.7 °C 19.6 °C 60000 m 0   0 min 129.8 W/m² 1019.3 hPa
13:06 23.9 °C 15.4 °C 59 % 21 km/h (31 km/h) 0 mm0 mm 19.4 °C 19.7 °C 19.6 °C 60000 m 0   4 min 214.4 W/m² 1019.3 hPa
13:00 23.5 °C 15.3 °C 60 % 18 km/h (29 km/h) 0 mm0 mm 19.4 °C 19.7 °C 19.6 °C 60000 m 0   5 min 198.4 W/m² 1019.3 hPa 8 Octas
12:54 23.1 °C 15.2 °C 61 % 16 km/h (23 km/h) 0 mm0 mm 19.4 °C 19.7 °C 19.6 °C 60000 m 0   2 min 174.1 W/m² 1019.5 hPa
12:48 22.9 °C 14.7 °C 60 % 17 km/h (26 km/h) 0 mm0 mm 19.4 °C 19.7 °C 19.6 °C 60000 m 0   0 min 116.1 W/m² 1019.5 hPa
12:42 23 °C 14.8 °C 60 % 17 km/h (26 km/h) 0 mm0 mm 19.4 °C 19.7 °C 19.6 °C 60000 m 0   0 min 105.8 W/m² 1019.5 hPa
12:36 23 °C 15.1 °C 61 % 14 km/h (26 km/h) 0 mm0 mm 19.4 °C 19.7 °C 19.6 °C 60000 m 0   0 min 104.1 W/m² 1019.6 hPa
12:30 22.7 °C 15.3 °C 63 % 11 km/h (19 km/h) 0 mm0 mm 19.3 °C 19.7 °C 19.6 °C 60000 m 0   0 min 87.3 W/m² 1019.5 hPa
12:24 22.3 °C 14.7 °C 62 % 11 km/h (17 km/h) 0 mm0 mm 19.4 °C 19.7 °C 19.6 °C 60000 m 0   0 min 77.8 W/m² 1019.6 hPa
12:18 22 °C 14.6 °C 63 % 10 km/h (17 km/h) 0 mm0 mm 19.4 °C 19.7 °C 19.6 °C 60000 m 0   0 min 75.6 W/m² 1019.5 hPa
12:12 21.9 °C 14.3 °C 62 % 7 km/h (13 km/h) 0 mm0 mm 19.4 °C 19.8 °C 19.6 °C 60000 m 0   0 min 70.9 W/m² 1019.5 hPa
12:06 21.6 °C 13.8 °C 61 % 4 km/h (9 km/h) 0 mm0 mm 19.3 °C 19.7 °C 19.6 °C 60000 m 0   0 min 70.6 W/m² 1019.5 hPa
12:00 21.5 °C 13.7 °C 61 % 4 km/h (11 km/h) 0 mm0 mm 19.4 °C 19.7 °C 19.6 °C 60000 m 0   0 min 70.4 W/m² 1019.4 hPa 7 Octas
11:54 21.1 °C 13.5 °C 62 % 6 km/h (11 km/h) 0 mm0 mm 19.3 °C 19.8 °C 19.6 °C 60000 m 0   0 min 66.1 W/m² 1019.3 hPa
11:48 20.9 °C 13.6 °C 63 % 6 km/h (12 km/h) 0 mm0 mm 19.4 °C 19.8 °C 19.6 °C 60000 m 0   0 min 63.6 W/m² 1019.3 hPa
11:42 20.8 °C 13.2 °C 62 % 7 km/h (12 km/h) 0 mm0 mm 19.3 °C 19.8 °C 19.6 °C 60000 m 0   0 min 71.3 W/m² 1019.3 hPa
11:36 20.7 °C 13.2 °C 62 % 6 km/h (8 km/h) 0 mm0 mm 19.4 °C 19.8 °C 19.6 °C 60000 m 0   0 min 71.9 W/m² 1019.5 hPa
11:30 20.5 °C 13 °C 62 % 5 km/h (10 km/h) 0 mm0 mm 19.4 °C 19.8 °C 19.6 °C 60000 m 0   0 min 65.6 W/m² 1019.5 hPa
11:24 20.2 °C 12.9 °C 63 % 8 km/h (14 km/h) 0 mm0 mm 19.4 °C 19.8 °C 19.6 °C 60000 m 0   0 min 61.4 W/m² 1019.4 hPa
11:18 19.9 °C 12.9 °C 64 % 8 km/h (14 km/h) 0 mm0 mm 19.3 °C 19.8 °C 19.6 °C 60000 m 0   0 min 55 W/m² 1019.3 hPa
11:12 19.7 °C 12.5 °C 63 % 9 km/h (14 km/h) 0 mm0 mm 19.4 °C 19.8 °C 19.6 °C 60000 m 0   0 min 46.2 W/m² 1019.2 hPa
11:06 19.5 °C 12.7 °C 65 % 10 km/h (15 km/h) 0 mm0 mm 19.4 °C 19.8 °C 19.6 °C 60000 m 0   0 min 36.1 W/m² 1019.1 hPa
11:00 19.3 °C 12.8 °C 66 % 10 km/h (15 km/h) 0 mm0 mm 19.4 °C 19.8 °C 19.6 °C 60000 m 0   0 min 32.9 W/m² 1019.2 hPa 8 Octas
10:54 19.2 °C 12.7 °C 66 % 9 km/h (13 km/h) 0 mm0 mm 19.4 °C 19.9 °C 19.6 °C 60000 m 0   0 min 33.6 W/m² 1019.3 hPa
10:48 19.2 °C 12.5 °C 65 % 9 km/h (14 km/h) 0 mm0 mm 19.4 °C 19.9 °C 19.6 °C 60000 m 0   0 min 28.6 W/m² 1019.3 hPa
10:42 19.1 °C 12.1 °C 64 % 10 km/h (15 km/h) 0 mm0 mm 19.4 °C 19.9 °C 19.6 °C 60000 m 0   0 min 27.9 W/m² 1019.3 hPa
10:36 19 °C 12.3 °C 65 % 11 km/h (19 km/h) 0 mm0 mm 19.4 °C 19.9 °C 19.6 °C 60000 m 0   0 min 27 W/m² 1019.3 hPa
10:30 19 °C 12.3 °C 65 % 11 km/h (17 km/h) 0 mm0 mm 19.4 °C 19.9 °C 19.6 °C 60000 m 0   0 min 25.9 W/m² 1019.3 hPa
10:24 19.1 °C 12.4 °C 65 % 11 km/h (15 km/h) 0 mm0 mm 19.4 °C 19.9 °C 19.6 °C 60000 m 0   0 min 27.5 W/m² 1019.4 hPa
10:18 19 °C 12 °C 64 % 9 km/h (14 km/h) 0 mm0 mm 19.4 °C 19.9 °C 19.6 °C 60000 m 0   0 min 33.1 W/m² 1019.3 hPa
10:12 18.8 °C 12.5 °C 67 % 9 km/h (12 km/h) 0 mm0 mm 19.5 °C 19.9 °C 19.6 °C 60000 m 0   0 min 38.2 W/m² 1019.4 hPa
10:06 18.6 °C 12.3 °C 67 % 10 km/h (13 km/h) 0 mm0 mm 19.5 °C 19.9 °C 19.6 °C 60000 m 0   0 min 33.1 W/m² 1019.6 hPa
10:00 18.7 °C 12.4 °C 67 % 8 km/h (13 km/h) 0 mm0 mm 19.5 °C 20 °C 19.6 °C 60000 m 0   0 min 28.1 W/m² 1019.7 hPa 8 Octas
09:54 18.7 °C 12 °C 65 % 7 km/h (11 km/h) 0 mm0 mm 19.5 °C 20 °C 19.6 °C 60000 m 0   0 min 24.1 W/m² 1019.6 hPa
09:48 18.6 °C 12.1 °C 66 % 6 km/h (9 km/h) 0 mm0 mm 19.5 °C 20 °C 19.6 °C 60000 m 0   0 min 23.2 W/m² 1019.6 hPa
09:42 18.4 °C 12.4 °C 68 % 6 km/h (10 km/h) 0 mm0 mm 19.5 °C 20 °C 19.6 °C 60000 m 0   0 min 24.8 W/m² 1019.6 hPa
09:36 18.1 °C 12.5 °C 70 % 6 km/h (8 km/h) 0 mm0 mm 19.5 °C 20 °C 19.6 °C 60000 m 0   0 min 28.6 W/m² 1019.7 hPa
09:30 17.8 °C 12 °C 69 % 6 km/h (8 km/h) 0 mm0 mm 19.5 °C 20 °C 19.6 °C 60000 m 0   0 min 31.2 W/m² 1019.9 hPa
09:24 17.3 °C 12.4 °C 73 % 6 km/h (8 km/h) 0 mm0 mm 19.5 °C 20 °C 19.6 °C 60000 m 0   0 min 27 W/m² 1019.9 hPa
09:18 17 °C 12.3 °C 74 % 6 km/h (8 km/h) 0 mm0 mm 19.6 °C 20.1 °C 19.6 °C 60000 m 0   0 min 22.5 W/m² 1019.9 hPa
09:12 16.8 °C 11.9 °C 73 % 6 km/h (8 km/h) 0 mm0 mm 19.6 °C 20.1 °C 19.6 °C 60000 m 0   0 min 21.3 W/m² 1020 hPa
09:06 16.6 °C 11.9 °C 74 % 6 km/h (8 km/h) 0 mm0 mm 19.6 °C 20.1 °C 19.6 °C 60000 m 0   0 min 20.5 W/m² 1020 hPa
09:00 16.5 °C 11.8 °C 74 % 6 km/h (8 km/h) 0 mm0 mm 19.6 °C 20.1 °C 19.6 °C 60000 m 0   0 min 18.2 W/m² 1020.1 hPa 8 Octas
08:54 16.3 °C 11.4 °C 73 % 7 km/h (9 km/h) 0 mm0 mm 19.6 °C 20.1 °C 19.6 °C 60000 m 0   0 min 15.8 W/m² 1020 hPa
08:48 16.1 °C 11.7 °C 75 % 8 km/h (9 km/h) 0 mm0 mm 19.7 °C 20.1 °C 19.6 °C 60000 m 0   0 min 13 W/m² 1020.2 hPa
08:42 15.9 °C 11.5 °C 75 % 8 km/h (10 km/h) 0 mm0 mm 19.7 °C 20.1 °C 19.6 °C 60000 m 0   0 min 11.5 W/m² 1020.1 hPa
08:36 15.6 °C 11.6 °C 77 % 9 km/h (13 km/h) 0 mm0 mm 19.7 °C 20.2 °C 19.6 °C 60000 m 0   0 min 12.1 W/m² 1020.1 hPa
08:30 15.5 °C 11.3 °C 76 % 9 km/h (13 km/h) 0 mm0 mm 19.7 °C 20.2 °C 19.6 °C 60000 m 0   0 min 13.9 W/m² 1020 hPa
08:24 15.4 °C 11.4 °C 77 % 9 km/h (12 km/h) 0 mm0 mm 19.7 °C 20.2 °C 19.6 °C 60000 m 0   0 min 12.1 W/m² 1020.1 hPa
08:18 15.2 °C 11.2 °C 77 % 9 km/h (11 km/h) 0 mm0 mm 19.8 °C 20.2 °C 19.6 °C 60000 m 0   0 min 9.6 W/m² 1020.3 hPa
08:12 14.8 °C 11.2 °C 79 % 8 km/h (9 km/h) 0 mm0 mm 19.8 °C 20.2 °C 19.6 °C 60000 m 0   1 min 8.2 W/m² 1020.5 hPa
08:06 15.1 °C 11.1 °C 77 % 8 km/h (11 km/h) 0 mm0 mm 19.8 °C 20.2 °C 19.6 °C 60000 m 0   2 min 5.1 W/m² 1020.6 hPa
08:00 15.2 °C 11 °C 76 % 9 km/h (11 km/h) 0 mm0 mm 19.8 °C 20.2 °C 19.6 °C 60000 m 0   0 min 0 W/m² 1020.6 hPa 8 Octas
07:54 15.1 °C 10.9 °C 76 % 9 km/h (10 km/h) 0 mm0 mm 19.8 °C 20.2 °C 19.6 °C 60000 m 0   0 min 0 W/m² 1020.6 hPa
07:48 15.2 °C 11 °C 76 % 9 km/h (11 km/h) 0 mm0 mm 19.8 °C 20.2 °C 19.6 °C 60000 m 0   0 min 0 W/m² 1020.5 hPa
07:42 15.2 °C 10.8 °C 75 % 9 km/h (11 km/h) 0 mm0 mm 19.9 °C 20.3 °C 19.6 °C 60000 m 0   0 min 0 W/m² 1020.4 hPa
07:36 15.3 °C 10.9 °C 75 % 9 km/h (10 km/h) 0 mm0 mm 19.9 °C 20.3 °C 19.6 °C 60000 m 0   0 min 0 W/m² 1020.5 hPa
07:30 15.1 °C 10.7 °C 75 % 10 km/h (12 km/h) 0 mm0 mm 19.9 °C 20.3 °C 19.6 °C 60000 m 0   0 min 0 W/m² 1020.6 hPa
07:24 15.2 °C 11 °C 76 % 10 km/h (12 km/h) 0 mm0 mm 19.9 °C 20.3 °C 19.6 °C 60000 m 0   0 min 0 W/m² 1020.6 hPa
07:18 15.2 °C 11 °C 76 % 10 km/h (12 km/h) 0 mm0 mm 19.9 °C 20.4 °C 19.6 °C 60000 m 0   0 min 0 W/m² 1020.6 hPa
07:12 15.1 °C 10.9 °C 76 % 11 km/h (13 km/h) 0 mm0 mm 20 °C 20.4 °C 19.6 °C 60000 m 0   0 min 0 W/m² 1020.6 hPa
07:06 15 °C 11 °C 77 % 12 km/h (14 km/h) 0 mm0 mm 19.9 °C 20.3 °C 19.6 °C 60000 m 0   0 min 0 W/m² 1020.6 hPa
07:00 14.8 °C 10.8 °C 77 % 11 km/h (14 km/h) 0 mm0 mm 20 °C 20.4 °C 19.6 °C 60000 m 0   0 min 0 W/m² 1020.7 hPa
06:54 14.8 °C 10.8 °C 77 % 10 km/h (12 km/h) 0 mm0 mm 20 °C 20.4 °C 19.6 °C 60000 m 0   0 min 0 W/m² 1020.8 hPa
06:48 14.7 °C 10.9 °C 78 % 10 km/h (11 km/h) 0 mm0 mm 20.1 °C 20.4 °C 19.6 °C 60000 m 0   0 min 0 W/m² 1020.8 hPa
06:42 14.8 °C 10.8 °C 77 % 9 km/h (10 km/h) 0 mm0 mm 20.1 °C 20.4 °C 19.6 °C 60000 m 0   0 min 0 W/m² 1020.9 hPa
06:36 14.6 °C 10.6 °C 77 % 7 km/h (10 km/h) 0 mm0 mm 20.1 °C 20.4 °C 19.6 °C 60000 m 0   0 min 0 W/m² 1020.9 hPa
06:30 14.8 °C 10.8 °C 77 % 7 km/h (10 km/h) 0 mm0 mm 20.1 °C 20.4 °C 19.6 °C 60000 m 0   0 min 0 W/m² 1020.9 hPa
06:24 14.9 °C 10.7 °C 76 % 7 km/h (9 km/h) 0 mm0 mm 20.1 °C 20.5 °C 19.6 °C 60000 m 0   0 min 0 W/m² 1020.9 hPa
06:18 15 °C 10.8 °C 76 % 6 km/h (8 km/h) 0 mm0 mm 20.1 °C 20.4 °C 19.5 °C 60000 m 0   0 min 0 W/m² 1020.9 hPa
06:12 15.1 °C 10.9 °C 76 % 8 km/h (9 km/h) 0 mm0 mm 20.2 °C 20.5 °C 19.6 °C 60000 m 0   0 min 0 W/m² 1020.9 hPa
06:06 15.2 °C 10.8 °C 75 % 8 km/h (9 km/h) 0 mm0 mm 20.2 °C 20.5 °C 19.6 °C 60000 m 0   0 min 0 W/m² 1020.8 hPa
06:00 14.9 °C 10.7 °C 76 % 8 km/h (9 km/h) 0 mm0 mm 20.2 °C 20.5 °C 19.6 °C 60000 m 0   0 min 0 W/m² 1021 hPa
05:54 15.2 °C 10.6 °C 74 % 9 km/h (13 km/h) 0 mm0 mm 20.2 °C 20.5 °C 19.6 °C 60000 m 0   0 min 0 W/m² 1020.9 hPa
05:48 15.5 °C 10.9 °C 74 % 11 km/h (13 km/h) 0 mm0 mm 20.2 °C 20.5 °C 19.6 °C 60000 m 0   0 min 0 W/m² 1020.7 hPa
05:42 15.5 °C 10.9 °C 74 % 12 km/h (16 km/h) 0 mm0 mm 20.3 °C 20.6 °C 19.6 °C 60000 m 0   0 min 0 W/m² 1020.5 hPa
05:36 15.6 °C 10.8 °C 73 % 13 km/h (16 km/h) 0 mm0 mm 20.3 °C 20.6 °C 19.6 °C 60000 m 0   0 min 0 W/m² 1020.6 hPa
05:30 15.7 °C 10.9 °C 73 % 12 km/h (15 km/h) 0 mm0 mm 20.3 °C 20.6 °C 19.6 °C 60000 m 0   0 min 0 W/m² 1020.7 hPa
05:24 15.9 °C 11.1 °C 73 % 12 km/h (15 km/h) 0 mm0 mm 20.4 °C 20.6 °C 19.6 °C 60000 m 0   0 min 0 W/m² 1020.8 hPa
05:18 15.9 °C 11.3 °C 74 % 13 km/h (16 km/h) 0 mm0 mm 20.4 °C 20.6 °C 19.6 °C 60000 m 0   0 min 0 W/m² 1020.8 hPa
05:12 15.7 °C 11.1 °C 74 % 13 km/h (16 km/h) 0 mm0 mm 20.4 °C 20.6 °C 19.6 °C 60000 m 0   0 min 0 W/m² 1020.9 hPa
05:06 15.6 °C 11 °C 74 % 12 km/h (15 km/h) 0 mm0 mm 20.4 °C 20.6 °C 19.6 °C 60000 m 0   0 min 0 W/m² 1021.1 hPa
05:00 15.5 °C 11.1 °C 75 % 12 km/h (16 km/h) 0 mm0 mm 20.4 °C 20.6 °C 19.5 °C 60000 m 0   0 min 0 W/m² 1021.3 hPa
04:54 15.5 °C 11.1 °C 75 % 12 km/h (15 km/h) 0 mm0 mm 20.5 °C 20.6 °C 19.6 °C 60000 m 0   0 min 0 W/m² 1021.4 hPa
04:48 15.5 °C 11.3 °C 76 % 11 km/h (14 km/h) 0 mm0 mm 20.5 °C 20.7 °C 19.6 °C 60000 m 0   0 min 0 W/m² 1021.6 hPa
04:42 15.6 °C 11.2 °C 75 % 11 km/h (14 km/h) 0 mm0 mm 20.5 °C 20.7 °C 19.5 °C 60000 m 0   0 min 0 W/m² 1021.8 hPa
04:36 15.6 °C 11.2 °C 75 % 12 km/h (16 km/h) 0 mm0 mm 20.5 °C 20.7 °C 19.5 °C 60000 m 0   0 min 0 W/m² 1021.7 hPa
04:30 15.5 °C 11.3 °C 76 % 11 km/h (16 km/h) 0 mm0 mm 20.5 °C 20.7 °C 19.5 °C 60000 m 0   0 min 0 W/m² 1021.9 hPa
04:24 15.7 °C 11.3 °C 75 % 11 km/h (13 km/h) 0 mm0 mm 20.6 °C 20.7 °C 19.5 °C 60000 m 0   0 min 0 W/m² 1022 hPa
04:18 15.8 °C 11.4 °C 75 % 11 km/h (15 km/h) 0 mm0 mm 20.6 °C 20.7 °C 19.5 °C 60000 m 0   0 min 0 W/m² 1022 hPa
04:12 15.9 °C 11.5 °C 75 % 12 km/h (15 km/h) 0 mm0 mm 20.6 °C 20.7 °C 19.5 °C 60000 m 0   0 min 0 W/m² 1021.8 hPa
04:06 15.7 °C 11.5 °C 76 % 12 km/h (15 km/h) 0 mm0 mm 20.6 °C 20.7 °C 19.5 °C 60000 m 0   0 min 0 W/m² 1022 hPa
04:00 15.9 °C 11.7 °C 76 % 12 km/h (14 km/h) 0 mm0 mm 20.7 °C 20.8 °C 19.5 °C 60000 m 0   0 min 0 W/m² 1021.9 hPa
03:54 15.9 °C 11.7 °C 76 % 13 km/h (15 km/h) 0 mm0 mm 20.7 °C 20.8 °C 19.5 °C 60000 m 0   0 min 0 W/m² 1022 hPa
03:48 15.7 °C 11.9 °C 78 % 13 km/h (17 km/h) 0 mm0 mm 20.7 °C 20.8 °C 19.5 °C 60000 m 0   0 min 0 W/m² 1022.1 hPa
03:42 15.7 °C 11.9 °C 78 % 12 km/h (15 km/h) 0 mm0 mm 20.7 °C 20.8 °C 19.5 °C 60000 m 0   0 min 0 W/m² 1022.3 hPa
03:36 15.7 °C 12.1 °C 79 % 12 km/h (14 km/h) 0 mm0 mm 20.8 °C 20.8 °C 19.5 °C 60000 m 0   0 min 0 W/m² 1022.4 hPa
03:30 15.8 °C 12 °C 78 % 12 km/h (14 km/h) 0 mm0 mm 20.8 °C 20.8 °C 19.5 °C 60000 m 0   0 min 0 W/m² 1022.5 hPa
03:24 16 °C 12.2 °C 78 % 12 km/h (14 km/h) 0 mm0 mm 20.8 °C 20.8 °C 19.5 °C 60000 m 0   0 min 0 W/m² 1022.5 hPa
03:18 15.9 °C 12.3 °C 79 % 11 km/h (14 km/h) 0 mm0 mm 20.8 °C 20.8 °C 19.5 °C 60000 m 0   0 min 0 W/m² 1022.7 hPa
03:12 16 °C 12.4 °C 79 % 10 km/h (12 km/h) 0 mm0 mm 20.8 °C 20.8 °C 19.5 °C 60000 m 0   0 min 0 W/m² 1022.7 hPa
03:06 16 °C 12.5 °C 80 % 10 km/h (12 km/h) 0 mm0 mm 20.8 °C 20.9 °C 19.5 °C 60000 m 0   0 min 0 W/m² 1022.8 hPa
03:00 16.1 °C 12.6 °C 80 % 8 km/h (11 km/h) 0 mm0 mm 20.9 °C 20.9 °C 19.5 °C 60000 m 0   0 min 0 W/m² 1023 hPa 8 Octas
02:54 16.2 °C 12.7 °C 80 % 8 km/h (10 km/h) 0 mm0 mm 20.9 °C 20.9 °C 19.5 °C 60000 m 0   0 min 0 W/m² 1023.1 hPa
02:48 16.2 °C 12.9 °C 81 % 9 km/h (12 km/h) 0 mm0 mm 20.9 °C 20.9 °C 19.5 °C 60000 m 0   0 min 0 W/m² 1023.1 hPa
02:42 16.2 °C 12.9 °C 81 % 9 km/h (12 km/h) 0 mm0 mm 21 °C 20.9 °C 19.5 °C 60000 m 0   0 min 0 W/m² 1023 hPa
02:36 16.2 °C 13.1 °C 82 % 10 km/h (15 km/h) 0 mm0 mm 21 °C 20.9 °C 19.5 °C 60000 m 0   0 min 0 W/m² 1023.1 hPa
02:30 16.2 °C 12.9 °C 81 % 12 km/h (15 km/h) 0 mm0 mm 21 °C 20.9 °C 19.5 °C 60000 m 0   0 min 0 W/m² 1023 hPa
02:24 16.2 °C 13.1 °C 82 % 11 km/h (15 km/h) 0 mm0 mm 21 °C 20.9 °C 19.5 °C 60000 m 0   0 min 0 W/m² 1023 hPa
02:18 16.2 °C 13.1 °C 82 % 10 km/h (15 km/h) 0 mm0 mm 21.1 °C 21 °C 19.5 °C 60000 m 0   0 min 0 W/m² 1023.2 hPa
02:12 16.1 °C 13.2 °C 83 % 11 km/h (15 km/h) 0 mm0 mm 21.1 °C 21 °C 19.5 °C 60000 m 0   0 min 0 W/m² 1023.2 hPa
02:06 16.1 °C 13.2 °C 83 % 12 km/h (15 km/h) 0 mm0 mm 21.1 °C 21 °C 19.5 °C 60000 m 0   0 min 0 W/m² 1023.2 hPa
02:00 16 °C 13.3 °C 84 % 11 km/h (15 km/h) 0 mm0 mm 21.2 °C 21 °C 19.5 °C 60000 m 0   0 min 0 W/m² 1023.4 hPa 7 Octas
01:54 16 °C 13.1 °C 83 % 11 km/h (13 km/h) 0 mm0 mm 21.2 °C 21 °C 19.5 °C 60000 m 0   0 min 0 W/m² 1023.5 hPa
01:48 16 °C 13.1 °C 83 % 10 km/h (13 km/h) 0 mm0 mm 21.2 °C 21 °C 19.5 °C 60000 m 0   0 min 0 W/m² 1023.5 hPa
01:42 16 °C 13.1 °C 83 % 10 km/h (13 km/h) 0 mm0 mm 21.2 °C 21 °C 19.5 °C 60000 m 0   0 min 0 W/m² 1023.6 hPa
01:36 16 °C 13.1 °C 83 % 10 km/h (13 km/h) 0 mm0 mm 21.3 °C 21.1 °C 19.5 °C 60000 m 0   0 min 0 W/m² 1023.5 hPa
01:30 16 °C 13.1 °C 83 % 10 km/h (13 km/h) 0 mm0 mm 21.3 °C 21 °C 19.5 °C 60000 m 0   0 min 0 W/m² 1023.6 hPa
01:24 16 °C 13.1 °C 83 % 9 km/h (11 km/h) 0 mm0 mm 21.3 °C 21.1 °C 19.5 °C 60000 m 0   0 min 0 W/m² 1023.6 hPa
01:18 16.1 °C 13.2 °C 83 % 9 km/h (11 km/h) 0 mm0 mm 21.4 °C 21.1 °C 19.5 °C 60000 m 0   0 min 0 W/m² 1023.6 hPa
01:12 16.1 °C 13.2 °C 83 % 9 km/h (11 km/h) 0 mm0 mm 21.4 °C 21.1 °C 19.5 °C 60000 m 0   0 min 0 W/m² 1023.6 hPa
01:06 16 °C 13.3 °C 84 % 10 km/h (12 km/h) 0 mm0 mm 21.4 °C 21.1 °C 19.5 °C 60000 m 0   0 min 0 W/m² 1023.6 hPa
01:00 16 °C 13.3 °C 84 % 10 km/h (13 km/h) 0 mm0 mm 21.5 °C 21.1 °C 19.5 °C 59840 m 0   0 min 0 W/m² 1023.6 hPa
00:54 15.8 °C 13.3 °C 85 % 10 km/h (13 km/h) 0 mm0 mm 21.5 °C 21.2 °C 19.5 °C 58170 m 0   0 min 0 W/m² 1023.7 hPa
00:48 15.6 °C 13.4 °C 87 % 10 km/h (13 km/h) 0 mm0 mm 21.5 °C 21.2 °C 19.5 °C 55100 m 0   0 min 0 W/m² 1023.7 hPa
00:42 15.4 °C 13.4 °C 88 % 8 km/h (12 km/h) 0 mm0 mm 21.5 °C 21.2 °C 19.5 °C 52520 m 0   0 min 0 W/m² 1023.8 hPa
00:36 15.4 °C 13.4 °C 88 % 8 km/h (11 km/h) 0 mm0 mm 21.6 °C 21.2 °C 19.5 °C 50480 m 0   0 min 0 W/m² 1023.8 hPa
00:30 15.5 °C 13.3 °C 87 % 8 km/h (11 km/h) 0 mm0 mm 21.6 °C 21.2 °C 19.5 °C 50030 m 0   0 min 0 W/m² 1023.7 hPa
00:24 15.6 °C 13.4 °C 87 % 8 km/h (9 km/h) 0 mm0 mm 21.6 °C 21.2 °C 19.5 °C 52110 m 0   0 min 0 W/m² 1023.7 hPa
00:18 15.7 °C 13.4 °C 86 % 6 km/h (9 km/h) 0 mm0 mm 21.7 °C 21.2 °C 19.5 °C 53610 m 0   0 min 0 W/m² 1023.8 hPa
00:12 15.6 °C 13.4 °C 87 % 6 km/h (9 km/h) 0 mm0 mm 21.7 °C 21.2 °C 19.5 °C 53100 m 0   0 min 0 W/m² 1024 hPa
00:06 15.6 °C 13.4 °C 87 % 8 km/h (10 km/h) 0 mm0 mm 21.7 °C 21.2 °C 19.5 °C 52860 m 0   0 min 0 W/m² 1023.9 hPa
00:00 15.4 °C 13.2 °C 87 % 9 km/h (13 km/h) 0 mm0 mm 21.8 °C 21.2 °C 19.5 °C 52020 m 0   0 min 0 W/m² 1024 hPa

Données via Météo-France

Relevés météo à Quimper

Cette page rassemble les observations de la station de Quimper : température, humidité, vent, précipitations et pression atmosphérique. Les graphiques facilitent le suivi de la journée, tandis que le tableau donne accès aux mesures horaires et infra-horaires disponibles.

Pour replacer ces mesures dans leur contexte, consultez la climatologie de Quimper ainsi que ses normales et records. Retrouvez aussi la carte des observations météo en temps réel.